Time;durP1;ratioP1;P1;durP2;ratioP2;P2;SDS_P1;SDS_P2;PMS_P1;PMS_P2;Temp;Humidity;BMP_temperature;BMP_pressure;BME280_temperature;BME280_humidity;BME280_pressure;Samples;Min_cycle;Max_cycle;Signal;HPM_P1;HPM_P2
2022/07/17 00:01:59;;;;;;;5.90;2.55;;;;;;;12.08;100.00;102666.72;5245090;28;20070;-69
2022/07/17 00:04:29;;;;;;;8.25;2.58;;;;;;;11.99;100.00;102667.50;5243985;28;20094;-69
2022/07/17 00:07:00;;;;;;;6.93;2.72;;;;;;;11.92;100.00;102669.03;5255161;28;20448;-69
2022/07/17 00:09:30;;;;;;;8.77;2.50;;;;;;;11.87;100.00;102666.72;5259964;28;20020;-69
2022/07/17 00:12:01;;;;;;;7.25;2.40;;;;;;;11.84;100.00;102661.59;5244958;28;20017;-69
2022/07/17 00:14:31;;;;;;;4.13;2.00;;;;;;;11.85;100.00;102659.78;5263387;28;20024;-69
2022/07/17 00:17:02;;;;;;;5.10;2.03;;;;;;;11.88;100.00;102667.56;5265196;28;20028;-69
2022/07/17 00:19:33;;;;;;;4.18;2.15;;;;;;;11.92;100.00;102663.66;5244712;28;20021;-69
2022/07/17 00:22:03;;;;;;;4.45;2.30;;;;;;;11.95;100.00;102659.81;5244147;28;20107;-69
2022/07/17 00:24:34;;;;;;;9.13;2.55;;;;;;;11.93;100.00;102665.34;5253790;28;20433;-70
2022/07/17 00:27:05;;;;;;;8.85;3.33;;;;;;;11.89;100.00;102661.19;5248409;28;20456;-69
2022/07/17 00:29:35;;;;;;;5.75;2.60;;;;;;;11.82;100.00;102662.72;5244672;28;20020;-69
2022/07/17 00:32:06;;;;;;;5.07;2.60;;;;;;;11.73;100.00;102658.09;5257678;28;20025;-69
2022/07/17 00:34:36;;;;;;;7.10;2.63;;;;;;;11.65;100.00;102664.97;5256261;28;20024;-69
2022/07/17 00:37:07;;;;;;;9.98;3.00;;;;;;;11.58;100.00;102671.84;5246161;28;20024;-69
2022/07/17 00:39:37;;;;;;;9.23;2.65;;;;;;;11.51;100.00;102669.81;5244523;28;20104;-69
2022/07/17 00:42:26;;;;;;;7.25;2.70;;;;;;;11.47;100.00;102671.03;5258411;28;20107;-69
2022/07/17 00:44:57;;;;;;;8.25;2.70;;;;;;;11.46;100.00;102658.59;5247336;28;20028;-69
2022/07/17 00:47:27;;;;;;;6.60;2.60;;;;;;;11.44;100.00;102653.31;5255282;28;20363;-69
2022/07/17 00:49:58;;;;;;;8.95;2.63;;;;;;;11.39;100.00;102658.22;5258010;28;20020;-69
2022/07/17 00:52:28;;;;;;;10.65;2.67;;;;;;;11.34;100.00;102663.13;5244688;28;20021;-69
2022/07/17 00:54:59;;;;;;;9.43;3.00;;;;;;;11.29;100.00;102658.13;5263545;28;20024;-69
2022/07/17 00:57:30;;;;;;;10.18;2.78;;;;;;;11.26;100.00;102660.22;5246180;28;20386;-69
2022/07/17 01:00:00;;;;;;;7.22;2.63;;;;;;;11.25;100.00;102663.91;5265256;28;20031;-69
2022/07/17 01:02:31;;;;;;;6.45;2.50;;;;;;;11.26;100.00;102666.47;5262801;28;20039;-69
2022/07/17 01:05:02;;;;;;;5.00;2.35;;;;;;;11.29;100.00;102659.97;5232356;28;20480;-69
2022/07/17 01:07:35;;;;;;;9.13;2.30;;;;;;;11.31;100.00;102658.03;5247608;28;20074;-70
2022/07/17 01:10:16;;;;;;;5.65;2.30;;;;;;;11.30;100.00;102659.84;5265123;28;20028;-69
2022/07/17 01:12:47;;;;;;;5.07;2.45;;;;;;;11.30;100.00;102659.00;5259332;28;20032;-69
2022/07/17 01:15:18;;;;;;;5.00;2.22;;;;;;;11.31;100.00;102660.72;5243956;28;20025;-69
2022/07/17 01:17:57;;;;;;;6.60;2.60;;;;;;;11.28;100.00;102658.25;5239949;28;20023;-69
2022/07/17 01:20:28;;;;;;;4.63;2.60;;;;;;;11.18;100.00;102663.53;5248683;28;20143;-69
2022/07/17 01:23:14;;;;;;;11.95;2.97;;;;;;;11.07;100.00;102659.06;5255388;28;20489;-69
2022/07/17 01:26:04;;;;;;;8.48;2.67;;;;;;;11.04;100.00;102666.50;5265438;28;20393;-69
2022/07/17 01:28:35;;;;;;;7.25;2.63;;;;;;;11.04;100.00;102672.72;5252369;28;20040;-69
2022/07/17 01:31:05;;;;;;;10.32;3.13;;;;;;;11.01;100.00;102667.63;5247745;28;20549;-69
2022/07/17 01:33:37;;;;;;;6.35;2.95;;;;;;;10.94;100.00;102673.59;5265203;28;20030;-69
2022/07/17 01:36:07;;;;;;;11.90;3.40;;;;;;;10.87;100.00;102681.31;5257305;28;20034;-69
2022/07/17 01:38:38;;;;;;;11.55;2.67;;;;;;;10.82;100.00;102676.28;5247395;28;20458;-69
2022/07/17 01:41:08;;;;;;;11.63;3.05;;;;;;;10.80;100.00;102658.63;5247448;28;20504;-69
2022/07/17 01:43:38;;;;;;;7.57;3.10;;;;;;;10.74;100.00;102654.56;5266607;28;20110;-69
2022/07/17 01:46:09;;;;;;;6.13;3.25;;;;;;;10.71;100.00;102662.88;5254711;28;20024;-70
2022/07/17 01:48:40;;;;;;;7.45;3.10;;;;;;;10.68;100.00;102668.50;5253799;28;20031;-69
2022/07/17 01:51:11;;;;;;;8.98;3.25;;;;;;;10.65;100.00;102671.44;5254756;28;20082;-69
2022/07/17 01:53:42;;;;;;;13.57;4.22;;;;;;;10.62;100.00;102664.47;5267860;28;20020;-69
2022/07/17 01:56:12;;;;;;;8.20;3.35;;;;;;;10.59;100.00;102662.06;5251040;28;20028;-69
2022/07/17 01:58:43;;;;;;;7.65;2.80;;;;;;;10.53;100.00;102654.47;5247162;28;20028;-69
2022/07/17 02:01:14;;;;;;;9.55;2.92;;;;;;;10.52;100.00;102663.50;5260935;28;20020;-69
2022/07/17 02:03:45;;;;;;;4.47;2.70;;;;;;;10.53;100.00;102651.78;5235929;28;20068;-69
2022/07/17 02:06:16;;;;;;;7.15;2.90;;;;;;;10.51;100.00;102660.94;5249898;28;20362;-69
2022/07/17 02:08:49;;;;;;;8.45;3.60;;;;;;;10.50;100.00;102654.72;5267830;28;20089;-69
2022/07/17 02:11:20;;;;;;;8.82;3.20;;;;;;;10.46;100.00;102649.72;5247036;28;20440;-69
2022/07/17 02:13:51;;;;;;;9.85;2.97;;;;;;;10.40;100.00;102644.84;5261173;28;20107;-69
2022/07/17 02:16:21;;;;;;;11.70;3.50;;;;;;;10.37;100.00;102652.16;5266955;28;20024;-69
2022/07/17 02:18:52;;;;;;;5.78;3.10;;;;;;;10.35;100.00;102645.22;5253603;28;20023;-69
2022/07/17 02:21:22;;;;;;;8.80;3.42;;;;;;;10.35;100.00;102655.94;5250108;28;20024;-69
2022/07/17 02:23:53;;;;;;;6.22;3.10;;;;;;;10.32;100.00;102651.66;5263323;28;20024;-69
2022/07/17 02:26:23;;;;;;;4.90;3.00;;;;;;;10.30;100.00;102652.75;5267614;28;20028;-69
2022/07/17 02:28:54;;;;;;;9.43;2.88;;;;;;;10.28;100.00;102658.22;5262392;28;20028;-69
2022/07/17 02:31:25;;;;;;;8.20;3.17;;;;;;;10.26;100.00;102662.03;5258459;28;20027;-69
2022/07/17 02:33:55;;;;;;;8.70;3.60;;;;;;;10.21;100.00;102658.81;5267460;28;20031;-69
2022/07/17 02:36:26;;;;;;;9.57;3.40;;;;;;;10.16;100.00;102655.63;5253686;28;20077;-69
2022/07/17 02:38:57;;;;;;;8.43;3.20;;;;;;;10.13;100.00;102660.25;5266373;28;20031;-69
2022/07/17 02:41:27;;;;;;;7.88;3.08;;;;;;;10.14;100.00;102663.81;5252276;28;20429;-69
2022/07/17 02:43:58;;;;;;;11.88;3.92;;;;;;;10.13;100.00;102654.03;5267560;28;20023;-69
2022/07/17 02:46:29;;;;;;;8.82;3.50;;;;;;;10.15;100.00;102651.25;5264611;28;20510;-69
2022/07/17 02:48:59;;;;;;;7.72;2.78;;;;;;;10.16;100.00;102650.28;5255195;28;20020;-69
2022/07/17 02:51:30;;;;;;;8.40;3.72;;;;;;;10.15;100.00;102652.09;5267189;28;20469;-69
2022/07/17 02:54:00;;;;;;;8.15;3.33;;;;;;;10.11;100.00;102664.88;5256562;28;20101;-69
2022/07/17 02:56:31;;;;;;;6.22;3.40;;;;;;;10.07;100.00;102663.41;5249219;28;20110;-69
2022/07/17 02:59:01;;;;;;;15.30;3.70;;;;;;;10.02;100.00;102660.22;5266891;28;20259;-69
2022/07/17 03:01:32;;;;;;;6.75;3.25;;;;;;;10.02;100.00;102665.59;5261621;28;20371;-69
2022/07/17 03:04:03;;;;;;;8.45;3.30;;;;;;;10.04;100.00;102658.31;5232192;28;20029;-69
2022/07/17 03:06:34;;;;;;;14.13;3.72;;;;;;;10.05;100.00;102664.50;5253099;28;20514;-69
2022/07/17 03:09:04;;;;;;;6.93;3.65;;;;;;;10.04;100.00;102671.72;5263287;28;20381;-69
2022/07/17 03:11:35;;;;;;;11.60;3.65;;;;;;;10.09;100.00;102668.66;5255275;28;20016;-69
2022/07/17 03:14:05;;;;;;;8.45;3.58;;;;;;;10.19;100.00;102671.47;5252574;28;20024;-69
2022/07/17 03:16:36;;;;;;;7.32;3.50;;;;;;;10.16;100.00;102669.91;5255356;28;20027;-69
2022/07/17 03:19:07;;;;;;;11.77;3.88;;;;;;;10.08;100.00;102677.66;5245633;28;20027;-69
2022/07/17 03:21:37;;;;;;;14.90;4.55;;;;;;;9.99;100.00;102678.38;5255878;28;20032;-69
2022/07/17 03:24:08;;;;;;;8.75;3.65;;;;;;;9.90;100.00;102669.22;5264167;28;20016;-69
2022/07/17 03:26:38;;;;;;;11.48;3.80;;;;;;;9.82;100.00;102668.94;5253631;28;20489;-69
2022/07/17 03:29:09;;;;;;;8.82;3.08;;;;;;;9.74;100.00;102674.03;5243693;28;20028;-69
2022/07/17 03:31:42;;;;;;;8.73;4.28;;;;;;;9.68;100.00;102679.84;5258702;28;20028;-69
2022/07/17 03:34:13;;;;;;;7.47;4.05;;;;;;;9.62;100.00;102680.31;5253297;28;20028;-70
2022/07/17 03:36:43;;;;;;;8.38;3.85;;;;;;;9.56;100.00;102682.50;5264556;28;20027;-69
2022/07/17 03:39:14;;;;;;;11.85;3.58;;;;;;;9.55;100.00;102685.31;5254699;28;20048;-69
2022/07/17 03:41:45;;;;;;;12.27;4.13;;;;;;;9.54;100.00;102684.44;5252739;28;20024;-69
2022/07/17 03:44:15;;;;;;;11.40;3.85;;;;;;;9.56;100.00;102687.84;5264882;28;20024;-69
2022/07/17 03:46:48;;;;;;;9.45;3.80;;;;;;;9.58;100.00;102690.41;5261156;28;20019;-69
2022/07/17 03:49:19;;;;;;;7.82;3.22;;;;;;;9.58;100.00;102685.06;5257480;28;20545;-69
2022/07/17 03:51:50;;;;;;;9.48;3.58;;;;;;;9.59;100.00;102678.75;5266018;28;20095;-69
2022/07/17 03:54:21;;;;;;;7.93;4.03;;;;;;;9.56;100.00;102670.94;5251548;28;20025;-69
2022/07/17 03:56:51;;;;;;;10.18;3.92;;;;;;;9.56;100.00;102677.13;5252283;28;20466;-69
2022/07/17 03:59:22;;;;;;;8.10;3.95;;;;;;;9.52;100.00;102678.34;5258393;28;20016;-69
2022/07/17 04:01:53;;;;;;;10.18;3.58;;;;;;;9.48;100.00;102684.88;5254076;28;20051;-69
2022/07/17 04:04:24;;;;;;;8.75;4.20;;;;;;;9.42;100.00;102673.78;5234571;28;20115;-69
2022/07/17 04:06:54;;;;;;;10.85;4.07;;;;;;;9.39;100.00;102674.00;5244722;28;20112;-69
2022/07/17 04:09:25;;;;;;;6.95;2.92;;;;;;;9.37;100.00;102684.84;5262765;28;20028;-69
2022/07/17 04:11:55;;;;;;;13.15;3.75;;;;;;;9.36;100.00;102676.91;5266161;28;20107;-69
2022/07/17 04:14:26;;;;;;;8.35;4.55;;;;;;;9.38;100.00;102686.53;5244996;28;20110;-69
2022/07/17 04:16:56;;;;;;;11.40;5.05;;;;;;;9.43;100.00;102692.41;5244605;28;20024;-69
2022/07/17 04:19:27;;;;;;;8.90;4.10;;;;;;;9.47;100.00;102695.72;5250101;28;20135;-69
2022/07/17 04:21:57;;;;;;;8.40;3.63;;;;;;;9.51;100.00;102699.91;5244672;28;20024;-69
2022/07/17 04:24:28;;;;;;;9.73;3.75;;;;;;;9.54;100.00;102692.50;5252550;28;20108;-69
2022/07/17 04:26:58;;;;;;;8.23;3.65;;;;;;;9.58;100.00;102701.13;5263355;28;20035;-69
2022/07/17 04:29:29;;;;;;;10.60;5.13;;;;;;;9.60;100.00;102693.84;5248958;28;20029;-69
2022/07/17 04:31:59;;;;;;;12.00;4.70;;;;;;;9.62;100.00;102699.09;5259173;28;20028;-69
2022/07/17 04:34:32;;;;;;;9.18;3.97;;;;;;;9.65;100.00;102697.03;5244050;28;20458;-69
2022/07/17 04:37:03;;;;;;;7.22;4.25;;;;;;;9.68;100.00;102696.78;5258549;28;20033;-69
2022/07/17 04:39:33;;;;;;;13.25;4.45;;;;;;;9.69;100.00;102697.66;5244935;28;20024;-69
2022/07/17 04:42:04;;;;;;;10.90;4.32;;;;;;;9.72;100.00;102700.09;5250958;28;20504;-69
2022/07/17 04:44:34;;;;;;;10.73;4.47;;;;;;;9.75;100.00;102707.94;5263480;28;20469;-69
2022/07/17 04:47:05;;;;;;;12.25;4.20;;;;;;;9.83;100.00;102717.06;5245732;28;20500;-69
2022/07/17 04:49:35;;;;;;;9.35;4.05;;;;;;;9.91;100.00;102727.22;5257909;28;20020;-69
2022/07/17 04:52:06;;;;;;;9.40;3.97;;;;;;;9.96;100.00;102711.66;5253232;28;20106;-69
2022/07/17 04:54:36;;;;;;;7.57;3.90;;;;;;;10.00;100.00;102707.78;5265252;28;20104;-69
2022/07/17 04:57:07;;;;;;;7.85;4.20;;;;;;;10.04;100.00;102716.41;5259175;28;20028;-69
2022/07/17 04:59:37;;;;;;;8.55;4.28;;;;;;;10.08;100.00;102712.53;5247643;28;20028;-69
2022/07/17 05:02:08;;;;;;;12.43;5.00;;;;;;;10.15;100.00;102708.44;5258839;28;20024;-69
2022/07/17 05:04:38;;;;;;;9.40;4.88;;;;;;;10.20;100.00;102694.66;5242156;28;20051;-69
2022/07/17 05:07:09;;;;;;;6.45;4.00;;;;;;;10.22;100.00;102692.69;5269422;28;20385;-69
2022/07/17 05:09:39;;;;;;;9.80;4.35;;;;;;;10.25;100.00;102695.19;5254964;28;20056;-69
2022/07/17 05:12:10;;;;;;;9.15;4.13;;;;;;;10.32;100.00;102699.09;5268567;28;20485;-69
2022/07/17 05:14:40;;;;;;;14.93;5.22;;;;;;;10.41;100.00;102708.25;5247026;28;20029;-69
2022/07/17 05:17:11;;;;;;;8.73;4.72;;;;;;;10.53;100.00;102710.81;5247867;28;20024;-69
2022/07/17 05:19:42;;;;;;;14.90;5.15;;;;;;;10.70;100.00;102698.78;5254234;28;20432;-69
2022/07/17 05:22:12;;;;;;;10.63;4.97;;;;;;;10.82;100.00;102691.56;5247399;28;20477;-69
2022/07/17 05:24:43;;;;;;;15.90;5.70;;;;;;;10.96;100.00;102709.25;5247260;28;20070;-69
2022/07/17 05:27:13;;;;;;;10.45;4.75;;;;;;;11.09;100.00;102702.78;5251449;28;20483;-69
2022/07/17 05:29:44;;;;;;;11.25;4.78;;;;;;;11.28;100.00;102703.94;5257646;28;20067;-69
2022/07/17 05:32:14;;;;;;;17.58;5.38;;;;;;;11.46;100.00;102707.81;5247347;28;20041;-69
2022/07/17 05:34:45;;;;;;;10.45;5.78;;;;;;;11.66;100.00;102711.53;5246835;28;20028;-69
2022/07/17 05:37:15;;;;;;;13.55;5.65;;;;;;;11.85;100.00;102702.81;5267373;28;20391;-69
2022/07/17 05:39:46;;;;;;;14.30;5.28;;;;;;;12.06;100.00;102700.97;5267252;28;20020;-69
2022/07/17 05:42:16;;;;;;;18.52;7.00;;;;;;;12.27;100.00;102703.66;5267970;28;20073;-70
2022/07/17 05:44:47;;;;;;;14.15;5.45;;;;;;;12.51;100.00;102697.16;5266039;28;20028;-70
2022/07/17 05:47:17;;;;;;;13.13;6.10;;;;;;;12.72;100.00;102697.09;5268173;28;20030;-70
2022/07/17 05:49:48;;;;;;;17.40;5.57;;;;;;;12.94;100.00;102702.28;5268174;28;20468;-70
2022/07/17 05:52:19;;;;;;;11.30;5.07;;;;;;;13.16;100.00;102696.69;5268263;28;20069;-70
2022/07/17 05:54:49;;;;;;;14.70;4.60;;;;;;;13.38;100.00;102705.53;5253954;28;20111;-70
2022/07/17 05:57:20;;;;;;;11.88;4.57;;;;;;;13.56;100.00;102711.97;5261603;28;20109;-70
2022/07/17 05:59:50;;;;;;;10.02;4.55;;;;;;;13.79;100.00;102720.63;5249412;28;20025;-70
2022/07/17 06:02:21;;;;;;;10.25;4.47;;;;;;;14.08;100.00;102725.16;5247120;28;20017;-70
2022/07/17 06:04:51;;;;;;;14.85;4.93;;;;;;;14.57;100.00;102723.25;5233029;28;20032;-70
2022/07/17 06:07:22;;;;;;;7.80;3.65;;;;;;;15.38;100.00;102712.59;5246574;28;20030;-70
2022/07/17 06:09:52;;;;;;;9.13;3.88;;;;;;;16.35;100.00;102707.22;5255493;28;20089;-70
2022/07/17 06:12:23;;;;;;;13.35;4.45;;;;;;;17.33;100.00;102705.84;5252812;28;20119;-70
2022/07/17 06:14:53;;;;;;;9.10;3.55;;;;;;;18.24;100.00;102723.94;5266999;28;20024;-70
2022/07/17 06:17:24;;;;;;;12.73;3.88;;;;;;;18.98;100.00;102719.19;5264162;28;20055;-70
2022/07/17 06:19:54;;;;;;;12.20;3.30;;;;;;;19.62;100.00;102713.56;5246995;28;20073;-71
2022/07/17 06:22:25;;;;;;;11.13;3.50;;;;;;;19.98;100.00;102722.00;5251229;28;20070;-70
2022/07/17 06:24:55;;;;;;;13.70;4.18;;;;;;;20.34;100.00;102724.88;5267148;28;20027;-71
2022/07/17 06:27:26;;;;;;;9.88;3.38;;;;;;;20.64;100.00;102722.22;5247860;28;20021;-70
2022/07/17 06:29:57;;;;;;;8.43;3.10;;;;;;;20.91;100.00;102727.00;5260144;28;20055;-70
2022/07/17 06:32:27;;;;;;;10.00;2.90;;;;;;;21.17;100.00;102728.38;5246660;28;20099;-71
2022/07/17 06:34:57;;;;;;;6.80;2.75;;;;;;;21.68;100.00;102731.06;5245625;28;20496;-71
2022/07/17 06:37:28;;;;;;;7.55;3.33;;;;;;;21.92;100.00;102727.97;5246698;28;20020;-71
2022/07/17 06:39:59;;;;;;;14.43;3.50;;;;;;;22.26;100.00;102729.13;5248504;28;20032;-71
2022/07/17 06:42:30;;;;;;;13.23;3.17;;;;;;;22.75;100.00;102728.19;5257696;28;20024;-70
2022/07/17 06:45:00;;;;;;;8.70;3.42;;;;;;;23.07;99.84;102734.06;5259198;28;20093;-71
2022/07/17 06:47:31;;;;;;;9.38;3.13;;;;;;;22.96;96.06;102736.34;5246623;28;20107;-71
2022/07/17 06:50:02;;;;;;;10.88;2.72;;;;;;;23.10;97.12;102733.66;5264379;28;20024;-71
2022/07/17 06:52:33;;;;;;;12.48;2.97;;;;;;;23.42;95.33;102721.97;5267145;28;20035;-71
2022/07/17 06:55:04;;;;;;;9.23;3.25;;;;;;;23.74;92.55;102720.38;5260353;28;20036;-71
2022/07/17 06:57:34;;;;;;;10.38;2.80;;;;;;;23.95;88.40;102726.75;5246068;28;20013;-71
2022/07/17 07:00:05;;;;;;;10.00;3.17;;;;;;;24.16;89.42;102728.44;5266680;28;20479;-71
2022/07/17 07:02:36;;;;;;;9.10;2.50;;;;;;;24.23;85.28;102730.09;5249934;28;20032;-71
2022/07/17 07:05:07;;;;;;;5.40;2.58;;;;;;;24.20;80.78;102732.44;5243670;28;20048;-71
2022/07/17 07:07:38;;;;;;;7.07;2.47;;;;;;;24.29;82.37;102731.16;5266810;28;20388;-71
2022/07/17 07:10:09;;;;;;;9.60;2.88;;;;;;;24.40;89.73;102735.16;5255897;28;20489;-71
2022/07/17 07:12:39;;;;;;;7.55;2.40;;;;;;;24.50;80.28;102733.72;5263168;28;20032;-71
2022/07/17 07:15:10;;;;;;;8.25;2.58;;;;;;;24.77;82.94;102736.38;5266213;28;20081;-71
2022/07/17 07:17:41;;;;;;;7.68;2.63;;;;;;;24.87;77.15;102736.78;5260790;28;20056;-72
2022/07/17 07:20:12;;;;;;;6.45;2.50;;;;;;;24.87;72.95;102739.53;5245529;28;20099;-71
2022/07/17 07:22:42;;;;;;;5.57;1.98;;;;;;;25.19;72.67;102732.22;5252956;28;20031;-71
2022/07/17 07:25:12;;;;;;;6.00;1.80;;;;;;;25.25;71.58;102736.88;5250620;28;20021;-71
2022/07/17 07:27:43;;;;;;;6.38;2.05;;;;;;;25.47;69.27;102736.53;5245502;28;20028;-71
2022/07/17 07:30:14;;;;;;;4.90;1.88;;;;;;;25.28;72.79;102733.66;5261998;28;20081;-72
2022/07/17 07:32:44;;;;;;;7.03;2.47;;;;;;;25.29;68.50;102743.59;5256480;28;20046;-71
2022/07/17 07:35:15;;;;;;;5.28;2.00;;;;;;;25.28;68.66;102744.66;5262546;28;20544;-71
2022/07/17 07:37:46;;;;;;;5.78;1.90;;;;;;;25.60;67.21;102743.84;5254808;28;20020;-71
2022/07/17 07:40:16;;;;;;;5.85;1.60;;;;;;;25.77;65.45;102743.13;5250032;28;20398;-71
2022/07/17 07:42:47;;;;;;;7.18;1.80;;;;;;;25.68;67.98;102744.44;5266093;28;20110;-72
2022/07/17 07:45:17;;;;;;;5.95;1.73;;;;;;;26.13;65.43;102746.25;5245611;28;20024;-72
2022/07/17 07:47:51;;;;;;;5.72;1.60;;;;;;;26.42;62.50;102748.34;5246278;28;20020;-72
2022/07/17 07:50:23;;;;;;;5.40;1.10;;;;;;;27.03;56.22;102750.22;5232651;28;20020;-72
2022/07/17 07:52:54;;;;;;;6.30;1.63;;;;;;;27.05;56.51;102748.06;5258475;28;20077;-72
2022/07/17 07:55:25;;;;;;;6.00;1.50;;;;;;;26.27;58.51;102753.34;5252879;28;20032;-72
2022/07/17 07:58:10;;;;;;;6.82;1.40;;;;;;;26.25;59.38;102755.44;5262190;28;20053;-72
2022/07/17 08:00:44;;;;;;;8.43;1.67;;;;;;;26.27;58.48;102756.91;5266151;28;20020;-71
2022/07/17 08:03:15;;;;;;;8.88;1.52;;;;;;;26.34;57.68;102762.34;5237905;28;20532;-72
2022/07/17 08:05:45;;;;;;;7.20;1.73;;;;;;;26.99;54.24;102746.22;5252922;28;20028;-72
2022/07/17 08:08:16;;;;;;;5.72;1.48;;;;;;;26.62;54.63;102744.56;5257117;28;20032;-72
2022/07/17 08:10:47;;;;;;;6.20;1.73;;;;;;;26.52;58.17;102734.91;5246808;28;20020;-72
2022/07/17 08:13:17;;;;;;;10.73;2.00;;;;;;;27.52;54.45;102733.72;5254499;28;20040;-72
2022/07/17 08:15:48;;;;;;;7.53;1.70;;;;;;;26.95;54.25;102734.00;5257822;28;20115;-72
2022/07/17 08:18:18;;;;;;;5.70;1.40;;;;;;;26.93;54.77;102729.81;5245053;28;20012;-72
2022/07/17 08:20:49;;;;;;;6.60;1.50;;;;;;;26.67;56.86;102728.19;5249678;28;20024;-72
2022/07/17 08:23:19;;;;;;;4.60;1.00;;;;;;;27.09;55.34;102716.25;5262231;28;20020;-72
2022/07/17 08:25:50;;;;;;;3.47;1.17;;;;;;;27.69;52.89;102723.69;5265113;28;20024;-72
2022/07/17 08:28:20;;;;;;;7.32;1.70;;;;;;;27.49;52.77;102715.72;5265398;28;20031;-72
2022/07/17 08:30:52;;;;;;;5.60;1.77;;;;;;;26.77;55.20;102731.25;5245009;28;20131;-72
2022/07/17 08:33:22;;;;;;;10.38;1.35;;;;;;;26.78;57.27;102728.28;5246031;28;20025;-72
2022/07/17 08:35:53;;;;;;;3.90;1.35;;;;;;;26.94;53.97;102729.56;5257353;28;20101;-72
2022/07/17 08:38:23;;;;;;;4.07;1.23;;;;;;;27.61;51.61;102718.50;5262058;28;20032;-72
2022/07/17 08:40:54;;;;;;;6.60;1.42;;;;;;;26.79;54.45;102727.19;5258870;28;20028;-72
2022/07/17 08:43:25;;;;;;;4.70;1.48;;;;;;;26.88;52.21;102730.50;5265773;28;20024;-72
2022/07/17 08:45:56;;;;;;;2.92;1.25;;;;;;;26.33;56.63;102725.75;5259810;28;20027;-72
2022/07/17 08:48:28;;;;;;;6.25;1.83;;;;;;;26.92;54.70;102720.69;5251061;28;20485;-72
2022/07/17 08:50:59;;;;;;;10.55;1.92;;;;;;;26.79;54.77;102723.59;5261904;28;20020;-72
2022/07/17 08:53:30;;;;;;;4.03;1.50;;;;;;;27.38;51.73;102718.44;5248700;28;20032;-72
2022/07/17 08:56:00;;;;;;;5.78;1.83;;;;;;;27.46;54.23;102716.19;5256061;28;20512;-72
2022/07/17 08:58:31;;;;;;;6.88;1.40;;;;;;;27.33;53.55;102731.00;5248229;28;20020;-72
2022/07/17 09:01:02;;;;;;;5.63;1.55;;;;;;;27.10;55.46;102720.69;5264170;28;20035;-72
2022/07/17 09:03:33;;;;;;;7.93;1.23;;;;;;;27.31;54.97;102716.63;5249822;28;20036;-72
2022/07/17 09:06:04;;;;;;;4.72;1.40;;;;;;;27.81;52.85;102713.56;5257949;28;20109;-72
2022/07/17 09:08:36;;;;;;;4.18;1.20;;;;;;;27.84;54.15;102710.31;5258879;28;20508;-72
2022/07/17 09:11:07;;;;;;;2.63;1.30;;;;;;;28.26;51.72;102709.38;5250529;28;20081;-72
2022/07/17 09:13:45;;;;;;;7.30;1.60;;;;;;;27.80;50.84;102713.78;5248185;28;20090;-72
2022/07/17 09:16:15;;;;;;;5.07;1.30;;;;;;;28.51;49.05;102711.94;5234313;28;20115;-72
2022/07/17 09:19:01;;;;;;;7.38;1.80;;;;;;;27.46;51.17;102710.69;5263028;28;20049;-72
2022/07/17 09:21:32;;;;;;;8.05;2.10;;;;;;;27.29;52.57;102715.16;5260298;28;20036;-72
2022/07/17 09:24:05;;;;;;;7.68;1.60;;;;;;;28.06;49.22;102704.22;5261352;28;20028;-72
2022/07/17 09:26:44;;;;;;;5.90;1.88;;;;;;;27.52;50.54;102706.16;5260696;28;20050;-72
2022/07/17 09:29:15;;;;;;;3.65;1.73;;;;;;;27.69;51.96;102718.16;5268598;28;20081;-72
2022/07/17 09:31:51;;;;;;;7.15;1.77;;;;;;;28.07;49.16;102714.22;5255331;28;20028;-72
2022/07/17 09:34:23;;;;;;;5.15;1.70;;;;;;;27.91;53.12;102721.22;5267852;28;20035;-72
2022/07/17 09:37:10;;;;;;;7.80;2.17;;;;;;;27.91;51.44;102726.75;5251825;28;20353;-72
2022/07/17 09:39:41;;;;;;;4.18;1.65;;;;;;;27.99;49.38;102729.19;5247409;28;20027;-72
2022/07/17 09:42:23;;;;;;;3.63;1.23;;;;;;;28.59;47.89;102723.44;5267139;28;20024;-72
2022/07/17 09:44:56;;;;;;;4.18;1.50;;;;;;;28.65;46.92;102728.00;5251744;28;20029;-72
2022/07/17 09:47:28;;;;;;;5.75;1.50;;;;;;;28.33;51.47;102726.69;5247223;28;20032;-72
2022/07/17 09:50:00;;;;;;;7.72;1.77;;;;;;;28.47;50.77;102739.19;5251609;28;20024;-72
2022/07/17 09:52:33;;;;;;;3.10;1.58;;;;;;;28.90;46.91;102733.22;5268589;28;20055;-72
2022/07/17 09:55:05;;;;;;;7.72;2.00;;;;;;;28.86;46.54;102725.69;5267280;28;20024;-72
2022/07/17 09:57:40;;;;;;;5.40;1.50;;;;;;;28.52;49.62;102724.69;5248933;28;20047;-72
2022/07/17 10:00:12;;;;;;;;;;;;;;;28.17;49.02;102725.47;5247823;28;20107;-72
2022/07/17 10:02:43;;;;;;;6.90;1.45;;;;;;;28.91;45.07;102726.63;5245058;28;19939;-72
2022/07/17 10:05:15;;;;;;;4.47;1.55;;;;;;;28.28;49.37;102724.66;5235919;28;20016;-72
2022/07/17 10:07:48;;;;;;;5.03;1.60;;;;;;;28.27;50.28;102724.91;5260458;28;20059;-72
2022/07/17 10:10:19;;;;;;;4.45;1.40;;;;;;;28.88;45.87;102729.06;5247102;28;20457;-72
2022/07/17 10:12:51;;;;;;;4.78;1.52;;;;;;;28.51;47.99;102711.94;5253490;28;20059;-72
2022/07/17 10:15:26;;;;;;;4.20;1.52;;;;;;;28.18;47.15;102709.75;5267921;28;20063;-72
2022/07/17 10:18:08;;;;;;;4.00;1.30;;;;;;;28.15;47.29;102716.59;5260019;28;20027;-72
2022/07/17 10:20:39;;;;;;;3.58;1.33;;;;;;;28.23;48.33;102721.75;5253090;28;20030;-72
2022/07/17 10:23:28;;;;;;;6.25;1.98;;;;;;;27.91;47.30;102717.63;5245725;28;20096;-73
2022/07/17 10:25:59;;;;;;;6.13;2.17;;;;;;;27.80;46.75;102709.09;5253948;28;20051;-72
2022/07/17 10:28:59;;;;;;;4.78;1.70;;;;;;;27.88;47.46;102703.25;5267226;28;20550;-72
2022/07/17 10:31:30;;;;;;;3.58;1.77;;;;;;;28.22;46.87;102708.22;5255387;28;20056;-72
2022/07/17 10:34:04;;;;;;;6.63;1.55;;;;;;;28.48;47.38;102698.63;5246552;28;20524;-72
2022/07/17 10:36:39;;;;;;;4.35;1.70;;;;;;;28.68;44.48;102701.00;5246960;28;20393;-72
2022/07/17 10:39:28;;;;;;;;;;;;;;;28.64;43.96;102700.63;5267563;28;20358;-72
2022/07/17 10:42:00;;;;;;;4.53;1.60;;;;;;;28.31;44.02;102698.47;5254072;28;19908;-72
2022/07/17 10:44:32;;;;;;;4.30;1.63;;;;;;;28.07;45.15;102695.72;5254089;28;20470;-72
2022/07/17 10:47:03;;;;;;;5.57;1.65;;;;;;;27.75;44.19;102691.59;5245791;28;20020;-72
2022/07/17 10:49:34;;;;;;;2.63;1.60;;;;;;;27.47;43.87;102687.56;5260639;28;20028;-72
2022/07/17 10:52:05;;;;;;;4.82;1.90;;;;;;;27.36;45.32;102691.09;5258630;28;20029;-72
2022/07/17 10:54:37;;;;;;;5.30;1.90;;;;;;;27.25;42.86;102689.97;5245600;28;20500;-72
2022/07/17 10:57:08;;;;;;;4.45;1.63;;;;;;;27.15;44.72;102691.63;5246144;28;20021;-72
2022/07/17 10:59:41;;;;;;;6.28;2.05;;;;;;;27.39;43.65;102696.16;5262558;28;20051;-72
2022/07/17 11:02:14;;;;;;;4.65;1.95;;;;;;;27.41;45.41;102688.50;5267142;28;20030;-72
2022/07/17 11:04:44;;;;;;;5.95;1.85;;;;;;;27.31;44.89;102690.97;5233158;28;20121;-72
2022/07/17 11:07:15;;;;;;;5.32;2.15;;;;;;;27.24;45.18;102692.97;5245372;28;20028;-72
2022/07/17 11:09:48;;;;;;;5.18;1.45;;;;;;;27.48;46.89;102697.50;5245448;28;20048;-72
2022/07/17 11:12:19;;;;;;;9.20;1.88;;;;;;;27.20;44.86;102694.50;5245904;28;20032;-72
2022/07/17 11:14:59;;;;;;;5.10;1.73;;;;;;;27.15;45.50;102692.44;5245648;28;20043;-72
2022/07/17 11:17:30;;;;;;;3.58;1.90;;;;;;;27.24;45.40;102681.97;5259389;28;20035;-72
2022/07/17 11:20:03;;;;;;;3.47;1.75;;;;;;;26.98;44.99;102686.72;5245483;28;20453;-72
2022/07/17 11:22:33;;;;;;;3.92;1.70;;;;;;;27.04;44.40;102693.22;5256059;28;20020;-72
2022/07/17 11:25:05;;;;;;;2.25;1.45;;;;;;;27.15;44.67;102683.34;5258665;28;20140;-72
2022/07/17 11:27:38;;;;;;;5.88;2.20;;;;;;;27.28;44.97;102681.25;5253873;28;20036;-72
2022/07/17 11:30:26;;;;;;;10.02;1.90;;;;;;;27.40;46.15;102675.78;5264345;28;20036;-72
2022/07/17 11:32:58;;;;;;;6.18;1.75;;;;;;;27.33;44.78;102680.56;5245785;28;20029;-72
2022/07/17 11:35:30;;;;;;;3.30;1.77;;;;;;;27.33;43.83;102683.31;5258559;28;20031;-72
2022/07/17 11:38:01;;;;;;;6.35;1.77;;;;;;;27.10;44.33;102684.88;5245490;28;20355;-72
2022/07/17 11:40:32;;;;;;;4.68;2.08;;;;;;;26.99;44.31;102682.88;5239544;28;20343;-72